Main page
METAR-TAF:

METAR-TAF

Airports :

Spencer Municipal Airport

Spencer, Iowa, United States

latitude: 43-09-56N, longitude: 095-12-10W, elevation: 1338 ft

Current weather observation

The report was made 40 minutes ago, at 23:53 UTC
Wind 22 mph from the Northwest with gusts up to 39 mph
Temperature 45°F
Humidity 36%
Pressure 30.21 in. Hg
Visibility: 10 miles
Scattered clouds at a height of 6000 ft

METAR: KSPW 192353Z AUTO 31019G34KT 10SM SCT060 07/M07 A3021 RMK AO2 PK WND 31034/2307 SLP241 T00671072 10100 20061 53009

Time: 19:33 (00:33 UTC)


TAF: missing

Weather observations and forecasts of more than 4000 airports (METAR and TAF reports).

The available stations are represented by yellow and red dots on the map.

Hover mouse over dot to see the name of the station.

Then click to see weather observations and forecasts.

To change the map : click on the green buttons with a black cross to zoom in, on the green button with a dash to zoom out, or on the green arrows for adjacent maps.


METAR-TAF: